sensor_id;sensor_type;location;lat;lon;timestamp;P1;durP1;ratioP1;P2;durP2;ratioP2
64467;SDS011;50853;46.836;16.820;2023-08-08T04:28:52;3.70;;;1.33;;
64467;SDS011;50853;46.836;16.820;2023-08-08T04:31:18;4.88;;;1.20;;
64467;SDS011;50853;46.836;16.820;2023-08-08T04:33:43;3.25;;;1.33;;
64467;SDS011;50853;46.836;16.820;2023-08-08T04:36:09;3.92;;;1.30;;
64467;SDS011;50853;46.836;16.820;2023-08-08T04:38:35;2.58;;;1.40;;
64467;SDS011;50853;46.836;16.820;2023-08-08T04:41:01;1.45;;;0.98;;
64467;SDS011;50853;46.836;16.820;2023-08-08T04:43:27;2.72;;;1.13;;
64467;SDS011;50853;46.836;16.820;2023-08-08T04:45:55;4.70;;;1.08;;
64467;SDS011;50853;46.836;16.820;2023-08-08T04:48:21;4.28;;;1.30;;
64467;SDS011;50853;46.836;16.820;2023-08-08T04:50:47;5.57;;;1.30;;
64467;SDS011;50853;46.836;16.820;2023-08-08T04:53:12;6.47;;;1.58;;
64467;SDS011;50853;46.836;16.820;2023-08-08T04:55:38;3.08;;;1.25;;
64467;SDS011;50853;46.836;16.820;2023-08-08T04:58:04;4.13;;;1.50;;
64467;SDS011;50853;46.836;16.820;2023-08-08T05:00:30;2.38;;;1.27;;
64467;SDS011;50853;46.836;16.820;2023-08-08T05:02:56;4.82;;;1.50;;
64467;SDS011;50853;46.836;16.820;2023-08-08T05:05:21;4.35;;;1.30;;
64467;SDS011;50853;46.836;16.820;2023-08-08T05:07:47;2.97;;;1.23;;
64467;SDS011;50853;46.836;16.820;2023-08-08T05:10:16;5.32;;;1.25;;
64467;SDS011;50853;46.836;16.820;2023-08-08T05:12:42;8.82;;;1.38;;
64467;SDS011;50853;46.836;16.820;2023-08-08T05:15:08;5.15;;;1.70;;
64467;SDS011;50853;46.836;16.820;2023-08-08T05:17:34;6.43;;;1.80;;
64467;SDS011;50853;46.836;16.820;2023-08-08T10:31:26;2.85;;;1.50;;
64467;SDS011;50853;46.836;16.820;2023-08-08T10:34:01;3.72;;;1.50;;
64467;SDS011;50853;46.836;16.820;2023-08-08T10:36:42;4.82;;;1.70;;
64467;SDS011;50853;46.836;16.820;2023-08-08T10:39:10;4.30;;;1.55;;
64467;SDS011;50853;46.836;16.820;2023-08-08T10:41:46;7.40;;;1.70;;
64467;SDS011;50853;46.836;16.820;2023-08-08T13:09:06;2.15;;;1.20;;
64467;SDS011;50853;46.836;16.820;2023-08-08T13:11:32;1.70;;;1.00;;
64467;SDS011;50853;46.836;16.820;2023-08-08T13:13:58;2.10;;;1.10;;
64467;SDS011;50853;46.836;16.820;2023-08-08T13:16:24;1.30;;;0.80;;
64467;SDS011;50853;46.836;16.820;2023-08-08T13:18:50;1.67;;;1.02;;
64467;SDS011;50853;46.836;16.820;2023-08-08T13:21:16;1.98;;;0.93;;
64467;SDS011;50853;46.836;16.820;2023-08-08T13:23:42;3.15;;;1.52;;
64467;SDS011;50853;46.836;16.820;2023-08-08T13:26:07;3.50;;;1.25;;
64467;SDS011;50853;46.836;16.820;2023-08-08T13:28:33;1.80;;;1.13;;
64467;SDS011;50853;46.836;16.820;2023-08-08T13:30:59;3.45;;;1.10;;
64467;SDS011;50853;46.836;16.820;2023-08-08T13:33:26;1.90;;;1.13;;
64467;SDS011;50853;46.836;16.820;2023-08-08T13:35:51;4.70;;;1.23;;
64467;SDS011;50853;46.836;16.820;2023-08-08T13:38:17;3.13;;;0.80;;
64467;SDS011;50853;46.836;16.820;2023-08-08T13:40:43;5.70;;;1.27;;
64467;SDS011;50853;46.836;16.820;2023-08-08T15:52:42;2.95;;;1.60;;
64467;SDS011;50853;46.836;16.820;2023-08-08T15:55:08;4.53;;;1.48;;
64467;SDS011;50853;46.836;16.820;2023-08-08T16:49:51;5.18;;;1.10;;
64467;SDS011;50853;46.836;16.820;2023-08-08T16:52:16;4.47;;;1.33;;
64467;SDS011;50853;46.836;16.820;2023-08-08T16:54:42;2.28;;;1.00;;
64467;SDS011;50853;46.836;16.820;2023-08-08T16:57:08;2.28;;;1.10;;
64467;SDS011;50853;46.836;16.820;2023-08-08T16:59:34;2.78;;;1.02;;
64467;SDS011;50853;46.836;16.820;2023-08-08T17:01:59;5.18;;;1.75;;
64467;SDS011;50853;46.836;16.820;2023-08-08T17:04:25;7.35;;;1.67;;
64467;SDS011;50853;46.836;16.820;2023-08-08T17:06:51;7.00;;;1.30;;
64467;SDS011;50853;46.836;16.820;2023-08-08T17:09:17;5.97;;;1.85;;
64467;SDS011;50853;46.836;16.820;2023-08-08T17:11:43;5.90;;;1.50;;
64467;SDS011;50853;46.836;16.820;2023-08-08T17:14:09;7.68;;;2.10;;
64467;SDS011;50853;46.836;16.820;2023-08-08T17:16:35;9.15;;;2.08;;
64467;SDS011;50853;46.836;16.820;2023-08-08T17:19:03;7.07;;;2.05;;
64467;SDS011;50853;46.836;16.820;2023-08-08T17:21:29;8.00;;;1.90;;
64467;SDS011;50853;46.836;16.820;2023-08-08T17:23:55;4.40;;;1.57;;
64467;SDS011;50853;46.836;16.820;2023-08-08T17:26:20;8.40;;;1.57;;
64467;SDS011;50853;46.836;16.820;2023-08-08T18:29:06;11.82;;;2.97;;
64467;SDS011;50853;46.836;16.820;2023-08-08T18:31:31;8.32;;;3.20;;
64467;SDS011;50853;46.836;16.820;2023-08-08T18:34:00;11.93;;;2.92;;
64467;SDS011;50853;46.836;16.820;2023-08-08T18:36:27;10.10;;;3.08;;
64467;SDS011;50853;46.836;16.820;2023-08-08T18:38:53;7.75;;;3.17;;
64467;SDS011;50853;46.836;16.820;2023-08-08T18:41:20;9.60;;;3.00;;
64467;SDS011;50853;46.836;16.820;2023-08-08T18:43:46;8.98;;;2.83;;
64467;SDS011;50853;46.836;16.820;2023-08-08T18:46:12;8.27;;;2.55;;
64467;SDS011;50853;46.836;16.820;2023-08-08T18:48:38;7.18;;;2.67;;
64467;SDS011;50853;46.836;16.820;2023-08-08T18:51:04;11.07;;;2.43;;
64467;SDS011;50853;46.836;16.820;2023-08-08T18:53:30;4.63;;;1.93;;
64467;SDS011;50853;46.836;16.820;2023-08-08T18:55:56;8.25;;;2.38;;
64467;SDS011;50853;46.836;16.820;2023-08-08T18:58:25;6.40;;;2.75;;
64467;SDS011;50853;46.836;16.820;2023-08-08T19:00:51;6.32;;;2.60;;
64467;SDS011;50853;46.836;16.820;2023-08-08T19:03:16;9.32;;;2.25;;
64467;SDS011;50853;46.836;16.820;2023-08-08T19:05:42;7.67;;;2.40;;
